Time;durP1;ratioP1;P1;durP2;ratioP2;P2;SDS_P1;SDS_P2;PMS_P1;PMS_P2;Temp;Humidity;BMP_temperature;BMP_pressure;BME280_temperature;BME280_humidity;BME280_pressure;Samples;Min_cycle;Max_cycle;Signal;HPM_P1;HPM_P2
2022/05/11 00:00:46;;;;;;;;;;;;;;;8.99;39.00;99307.38;5113636;28;20051;-80
2022/05/11 00:03:13;;;;;;;2.38;1.10;;;;;;;8.83;39.24;99264.84;5113051;28;19924;-79
2022/05/11 00:05:42;;;;;;;1.13;1.03;;;;;;;9.04;39.54;99299.59;5113529;28;20047;-79
2022/05/11 00:08:09;;;;;;;2.08;1.00;;;;;;;9.14;38.71;99296.09;5113109;28;20050;-79
2022/05/11 00:10:36;;;;;;;3.33;1.20;;;;;;;9.09;38.70;99293.50;5113195;28;20142;-78
2022/05/11 00:13:04;;;;;;;1.50;1.10;;;;;;;9.17;38.69;99290.91;5113031;28;20060;-80
2022/05/11 00:15:32;;;;;;;1.67;1.00;;;;;;;9.18;38.92;99297.84;5095739;28;20466;-80
2022/05/11 00:17:59;;;;;;;1.40;1.00;;;;;;;9.16;38.67;99303.09;5096259;28;20428;-80
2022/05/11 00:20:26;;;;;;;2.20;1.25;;;;;;;8.92;38.84;99245.75;5095861;28;20048;-79
2022/05/11 00:22:56;;;;;;;1.77;0.90;;;;;;;9.07;39.29;99270.94;5113499;28;20051;-81
2022/05/11 00:25:25;;;;;;;1.98;1.20;;;;;;;8.90;38.99;99253.53;5113541;28;20058;-80
2022/05/11 00:27:53;;;;;;;2.38;1.27;;;;;;;9.15;38.67;99303.06;5113013;28;20059;-80
2022/05/11 00:30:21;;;;;;;1.48;1.10;;;;;;;9.14;39.20;99286.56;5112871;28;20104;-80
2022/05/11 00:32:50;;;;;;;2.25;1.30;;;;;;;8.86;39.28;99243.13;5094909;28;20052;-80
2022/05/11 00:35:17;;;;;;;1.52;1.10;;;;;;;9.14;39.32;99286.56;5112823;28;20134;-81
2022/05/11 00:37:44;;;;;;;2.97;1.40;;;;;;;9.05;38.79;99294.38;5113475;28;20052;-81
2022/05/11 00:40:12;;;;;;;1.95;1.33;;;;;;;9.14;39.08;99311.75;5113268;28;20555;-80
2022/05/11 00:42:39;;;;;;;1.13;0.93;;;;;;;9.09;39.19;99298.72;5094805;28;20501;-81
2022/05/11 00:45:07;;;;;;;2.28;1.08;;;;;;;9.14;39.10;99296.09;5113687;28;20051;-80
2022/05/11 00:47:44;;;;;;;2.85;1.30;;;;;;;9.10;39.00;99299.56;5116827;28;20166;-81
2022/05/11 00:50:16;;;;;;;1.73;1.10;;;;;;;9.10;38.83;99300.47;5082431;28;20078;-81
2022/05/11 00:52:47;;;;;;;2.05;1.08;;;;;;;8.74;39.32;99231.00;5116910;28;20134;-81
2022/05/11 00:55:28;;;;;;;1.90;1.35;;;;;;;8.93;39.63;99268.34;5116419;28;20051;-82
2022/05/11 00:57:58;;;;;;;1.83;1.02;;;;;;;9.04;39.86;99290.03;5116771;28;20134;-82
2022/05/11 01:00:26;;;;;;;1.98;0.95;;;;;;;8.95;39.80;99280.47;5117131;28;20060;-82
2022/05/11 01:03:01;;;;;;;1.92;1.00;;;;;;;9.02;39.98;99304.81;5117025;28;20119;-81
2022/05/11 01:05:28;;;;;;;1.60;1.27;;;;;;;9.02;39.63;99294.38;5098820;28;20051;-82
2022/05/11 01:08:06;;;;;;;1.98;1.45;;;;;;;8.94;39.95;99270.06;5099361;28;20051;-83
2022/05/11 01:10:36;;;;;;;1.92;1.17;;;;;;;8.87;40.18;99258.78;5117034;28;20063;-81
2022/05/11 01:13:08;;;;;;;4.05;1.17;;;;;;;9.00;40.19;99281.34;5117274;28;20571;-83
2022/05/11 01:15:37;;;;;;;2.35;1.00;;;;;;;8.54;39.73;99200.59;5097818;28;20508;-81
2022/05/11 01:18:07;;;;;;;1.67;1.05;;;;;;;9.04;39.96;99281.38;5116272;28;20036;-81
2022/05/11 01:20:35;;;;;;;;;;;;;;;8.81;39.89;99271.78;5099240;28;20059;-81
2022/05/11 01:23:17;;;;;;;2.58;1.35;;;;;;;8.81;39.95;99274.38;5098075;28;19923;-81
2022/05/11 01:25:46;;;;;;;1.33;1.00;;;;;;;8.93;40.22;99287.44;5116346;28;20390;-82
2022/05/11 01:28:17;;;;;;;3.75;1.20;;;;;;;8.59;39.64;99205.81;5116094;28;20047;-80
2022/05/11 01:30:50;;;;;;;1.40;1.10;;;;;;;8.82;39.49;99250.09;5115783;28;20462;-82
2022/05/11 01:33:23;;;;;;;1.05;1.00;;;;;;;8.88;39.63;99276.13;5116386;28;20059;-81
2022/05/11 01:36:13;;;;;;;1.98;1.17;;;;;;;8.88;39.76;99265.69;5097662;28;20056;-80
2022/05/11 01:38:49;;;;;;;4.78;1.35;;;;;;;8.81;39.99;99253.56;5116334;28;20074;-81
2022/05/11 01:41:35;;;;;;;1.15;0.85;;;;;;;8.88;39.41;99264.84;5116098;28;20059;-82
2022/05/11 01:44:05;;;;;;;4.43;1.33;;;;;;;8.90;40.01;99271.78;5115924;28;20052;-81
2022/05/11 01:46:33;;;;;;;1.25;1.15;;;;;;;8.72;39.52;99220.56;5116111;28;20054;-80
2022/05/11 01:49:01;;;;;;;2.42;1.30;;;;;;;8.89;39.58;99241.41;5116919;28;20055;-82
2022/05/11 01:51:29;;;;;;;2.95;1.17;;;;;;;8.85;39.36;99262.25;5115903;28;20047;-83
2022/05/11 01:53:56;;;;;;;1.10;1.00;;;;;;;8.73;39.25;99240.53;5118892;28;20142;-82
2022/05/11 01:56:25;;;;;;;1.77;1.20;;;;;;;8.91;39.84;99257.91;5102079;28;20075;-83
2022/05/11 01:58:53;;;;;;;3.08;1.35;;;;;;;8.55;39.55;99180.63;5116246;28;20062;-83
2022/05/11 02:01:24;;;;;;;1.30;1.10;;;;;;;8.67;39.83;99219.69;5116000;28;20051;-81
2022/05/11 02:03:52;;;;;;;2.80;1.38;;;;;;;8.68;39.20;99225.78;5115779;28;20051;-82
2022/05/11 02:09:07;;;;;;;1.83;1.10;;;;;;;8.74;39.83;99231.84;5080418;28;20580;-83
2022/05/11 02:11:35;;;;;;;2.13;1.15;;;;;;;8.79;38.97;99237.91;5115505;28;20058;-82
2022/05/11 02:14:03;;;;;;;1.25;0.90;;;;;;;8.89;39.51;99254.44;5115381;28;20066;-82
2022/05/11 02:16:30;;;;;;;1.05;1.00;;;;;;;8.70;39.20;99237.91;5115344;28;20054;-81
2022/05/11 02:18:57;;;;;;;2.78;1.25;;;;;;;8.75;39.58;99225.75;5115417;28;20048;-82
2022/05/11 02:21:25;;;;;;;4.00;1.20;;;;;;;8.76;39.86;99231.84;5114669;28;20419;-81
2022/05/11 02:23:53;;;;;;;2.83;1.27;;;;;;;8.88;39.44;99238.78;5114639;28;20052;-82
2022/05/11 02:26:20;;;;;;;2.83;1.10;;;;;;;8.92;39.77;99258.78;5114958;28;20055;-82
2022/05/11 02:28:49;;;;;;;2.08;1.35;;;;;;;8.90;39.35;99244.88;5114940;28;20123;-81
2022/05/11 02:31:16;;;;;;;2.28;1.35;;;;;;;8.81;39.18;99257.00;5114787;28;20058;-80
2022/05/11 02:33:44;;;;;;;1.75;1.27;;;;;;;8.70;39.32;99208.41;5117509;28;20047;-80
2022/05/11 02:36:13;;;;;;;1.80;0.98;;;;;;;8.77;39.76;99231.84;5128518;28;20052;-81
2022/05/11 02:38:42;;;;;;;4.28;1.10;;;;;;;8.60;39.72;99211.03;5113113;28;20052;-82
2022/05/11 02:41:09;;;;;;;4.78;1.20;;;;;;;8.69;39.79;99206.66;5130368;28;20059;-81
2022/05/11 02:43:37;;;;;;;2.13;1.30;;;;;;;8.91;39.92;99236.22;5127860;28;20499;-81
2022/05/11 02:46:05;;;;;;;1.52;1.23;;;;;;;8.93;39.41;99250.09;5115639;28;20048;-82
2022/05/11 02:48:33;;;;;;;2.30;1.20;;;;;;;8.83;39.73;99230.97;5115553;28;20512;-82
2022/05/11 02:51:03;;;;;;;1.50;1.00;;;;;;;8.89;40.25;99245.75;5115190;28;20177;-81
2022/05/11 02:53:32;;;;;;;2.22;1.20;;;;;;;8.78;40.01;99219.72;5079329;28;20051;-80
2022/05/11 02:56:01;;;;;;;2.70;1.20;;;;;;;8.88;39.69;99230.97;5096595;28;20142;-81
2022/05/11 02:58:34;;;;;;;1.33;1.23;;;;;;;8.96;39.87;99219.69;5114861;28;20051;-80
2022/05/11 03:01:03;;;;;;;1.90;1.10;;;;;;;8.78;39.63;99220.56;5114432;28;20060;-79
2022/05/11 03:03:34;;;;;;;2.47;1.17;;;;;;;8.91;39.93;99228.41;5114643;28;20112;-81
2022/05/11 03:06:05;;;;;;;2.65;1.25;;;;;;;7.95;39.56;99077.31;5079630;28;20108;-81
2022/05/11 03:08:33;;;;;;;2.72;1.45;;;;;;;8.90;39.98;99230.09;5113430;28;20097;-81
2022/05/11 03:11:00;;;;;;;2.72;1.20;;;;;;;8.98;40.49;99236.19;5116871;28;20052;-82
2022/05/11 03:13:28;;;;;;;3.63;1.33;;;;;;;8.99;40.16;99240.53;5114739;28;20433;-82
2022/05/11 03:15:57;;;;;;;2.80;1.10;;;;;;;8.60;40.13;99176.28;5095705;28;20095;-83
2022/05/11 03:18:24;;;;;;;2.28;1.58;;;;;;;8.79;39.95;99206.66;5095475;28;20047;-82
2022/05/11 03:20:56;;;;;;;2.22;1.15;;;;;;;9.01;40.33;99224.91;5113988;28;20142;-81
2022/05/11 03:23:25;;;;;;;2.20;1.20;;;;;;;8.82;39.98;99179.78;5095565;28;20505;-81
2022/05/11 03:25:54;;;;;;;2.83;1.20;;;;;;;9.09;39.76;99227.50;5114028;28;20055;-80
2022/05/11 03:28:21;;;;;;;1.40;1.30;;;;;;;9.10;40.18;99224.91;5095357;28;20420;-79
2022/05/11 03:30:48;;;;;;;2.90;1.02;;;;;;;9.11;40.08;99236.19;5115241;28;20515;-82
2022/05/11 03:36:07;;;;;;;1.83;1.13;;;;;;;9.00;40.15;99194.50;5113967;28;20047;-81
2022/05/11 03:38:34;;;;;;;2.60;1.13;;;;;;;9.08;40.05;99213.63;5095610;28;20051;-80
2022/05/11 03:41:01;;;;;;;1.75;1.30;;;;;;;9.04;40.20;99211.03;5113607;28;20051;-80
2022/05/11 03:43:29;;;;;;;1.08;0.98;;;;;;;9.16;39.94;99227.50;5113263;28;20079;-80
2022/05/11 03:45:59;;;;;;;1.30;1.20;;;;;;;8.81;39.75;99165.00;5113468;28;20527;-81
2022/05/11 03:48:26;;;;;;;1.83;1.20;;;;;;;9.14;40.01;99237.06;5113268;28;20048;-82
2022/05/11 03:50:55;;;;;;;2.47;1.40;;;;;;;8.78;39.69;99145.06;5113318;28;20060;-81
2022/05/11 03:53:22;;;;;;;2.72;1.38;;;;;;;9.12;39.96;99214.47;5113184;28;20055;-84
2022/05/11 03:55:49;;;;;;;4.90;1.30;;;;;;;9.15;39.88;99199.72;5114092;28;20094;-80
2022/05/11 03:58:16;;;;;;;2.15;1.40;;;;;;;9.29;39.87;99225.75;5113757;28;20048;-82
2022/05/11 04:00:44;;;;;;;1.95;1.00;;;;;;;9.08;39.69;99171.03;5113329;28;20052;-82
2022/05/11 04:03:11;;;;;;;1.23;1.13;;;;;;;9.29;39.71;99207.53;5087240;28;20406;-83
2022/05/11 04:05:38;;;;;;;2.42;1.45;;;;;;;9.07;40.13;99162.38;5113241;28;20059;-82
2022/05/11 04:08:06;;;;;;;2.78;1.20;;;;;;;9.49;39.98;99223.09;5113370;28;20078;-81
2022/05/11 04:10:33;;;;;;;2.30;1.30;;;;;;;9.43;39.25;99210.94;5112876;28;20057;-80
2022/05/11 04:13:01;;;;;;;11.45;4.93;;;;;;;9.39;39.43;99183.13;5074794;28;20056;-81
2022/05/11 04:15:29;;;;;;;2.78;1.27;;;;;;;9.72;39.97;99222.16;5091645;28;20493;-81
2022/05/11 04:17:56;;;;;;;4.47;1.23;;;;;;;9.59;39.62;99174.38;5092485;28;20447;-82
2022/05/11 04:20:23;;;;;;;1.98;1.35;;;;;;;9.51;39.20;99179.66;5094559;28;20052;-79
2022/05/11 04:22:51;;;;;;;2.58;1.33;;;;;;;9.81;39.11;99202.13;5096982;28;20056;-80
2022/05/11 04:25:18;;;;;;;2.33;1.00;;;;;;;9.86;39.64;99190.81;5097396;28;20125;-79
2022/05/11 04:27:46;;;;;;;2.30;1.48;;;;;;;10.05;38.81;99202.91;5099302;28;20052;-80
2022/05/11 04:30:16;;;;;;;2.05;1.13;;;;;;;10.25;38.11;99205.41;5098343;28;20107;-81
2022/05/11 04:32:43;;;;;;;1.63;1.38;;;;;;;10.30;38.64;99201.03;5098562;28;20059;-82
2022/05/11 04:35:11;;;;;;;2.75;1.10;;;;;;;10.47;39.05;99206.16;5098724;28;20516;-81
2022/05/11 04:37:40;;;;;;;1.47;1.27;;;;;;;10.59;38.70;99210.44;5098368;28;20052;-79
2022/05/11 04:40:10;;;;;;;2.03;1.15;;;;;;;10.71;37.87;99205.13;5099186;28;20296;-82
2022/05/11 04:42:44;;;;;;;5.25;1.48;;;;;;;10.41;37.57;99135.69;5097698;28;20052;-82
2022/05/11 04:45:13;;;;;;;4.65;1.58;;;;;;;10.90;37.67;99205.81;5112404;28;20048;-82
2022/05/11 04:47:40;;;;;;;2.30;1.25;;;;;;;10.86;37.57;99188.44;5097697;28;20105;-84
2022/05/11 04:50:11;;;;;;;2.58;1.23;;;;;;;10.62;37.54;99126.84;5096352;28;20055;-82
2022/05/11 04:52:45;;;;;;;3.22;1.60;;;;;;;11.09;36.96;99185.63;5096643;28;20056;-81
2022/05/11 04:55:14;;;;;;;3.92;1.48;;;;;;;10.86;37.05;99115.28;5096181;28;20059;-81
2022/05/11 04:57:42;;;;;;;3.47;1.52;;;;;;;11.39;36.79;99205.38;5129177;27;20076;-83
2022/05/11 05:00:12;;;;;;;3.28;1.17;;;;;;;11.34;36.75;99172.34;5095054;28;20079;-82
2022/05/11 05:02:40;;;;;;;2.00;1.50;;;;;;;11.38;36.88;99206.28;5096481;28;20062;-81
2022/05/11 05:05:10;;;;;;;2.67;1.35;;;;;;;11.35;36.67;99214.13;5096090;28;20056;-81
2022/05/11 05:07:39;;;;;;;4.10;1.50;;;;;;;11.03;37.04;99156.94;5096507;28;20090;-82
2022/05/11 05:10:09;;;;;;;4.00;1.50;;;;;;;11.36;36.39;99217.63;5096357;28;20398;-80
2022/05/11 05:12:36;;;;;;;4.05;1.58;;;;;;;11.37;37.06;99201.91;5096927;28;20048;-79
2022/05/11 05:15:04;;;;;;;1.98;1.65;;;;;;;11.36;36.56;99210.66;5116427;28;20043;-81
2022/05/11 05:17:31;;;;;;;2.78;1.38;;;;;;;11.43;36.55;99203.59;5115588;28;20458;-81
2022/05/11 05:19:58;;;;;;;6.68;1.63;;;;;;;11.44;36.59;99205.31;5097898;28;20051;-81
2022/05/11 05:22:25;;;;;;;3.92;1.60;;;;;;;11.54;36.80;99204.34;5115909;28;20087;-79
2022/05/11 05:24:52;;;;;;;2.80;1.60;;;;;;;11.55;36.51;99229.63;5097857;28;20044;-82
2022/05/11 05:27:19;;;;;;;2.40;1.40;;;;;;;11.57;36.02;99191.25;5116047;28;20058;-83
2022/05/11 05:32:41;;;;;;;3.47;2.08;;;;;;;11.71;36.36;99190.22;5115605;28;20398;-82
2022/05/11 05:35:10;;;;;;;2.88;1.60;;;;;;;11.95;35.66;99216.09;5115860;28;20054;-81
2022/05/11 05:37:45;;;;;;;2.63;1.23;;;;;;;11.78;35.24;99179.63;5116673;28;20473;-82
2022/05/11 05:40:14;;;;;;;2.47;1.27;;;;;;;12.11;35.35;99205.44;5116015;28;20100;-83
2022/05/11 05:42:41;;;;;;;4.05;1.85;;;;;;;12.27;35.14;99180.78;5098078;28;20051;-80
2022/05/11 05:45:10;;;;;;;7.60;1.77;;;;;;;12.52;34.96;99194.38;5115654;28;20120;-80
2022/05/11 05:47:39;;;;;;;2.13;1.23;;;;;;;12.72;34.65;99201.06;5115471;28;20058;-80
2022/05/11 05:50:07;;;;;;;3.63;1.90;;;;;;;12.88;34.27;99197.28;5115494;28;20043;-80
2022/05/11 05:52:37;;;;;;;3.65;1.50;;;;;;;13.00;34.29;99188.38;5115064;28;20078;-81
2022/05/11 05:55:07;;;;;;;4.53;1.42;;;;;;;12.89;33.72;99147.47;5115478;28;20077;-80
2022/05/11 05:57:37;;;;;;;5.10;1.83;;;;;;;13.25;33.59;99194.03;5114771;28;20045;-80
2022/05/11 06:00:04;;;;;;;4.13;2.00;;;;;;;13.35;33.80;99194.78;5115215;28;20052;-81
2022/05/11 06:02:32;;;;;;;3.60;1.58;;;;;;;13.36;33.58;99196.50;5114883;28;20040;-81
2022/05/11 06:04:59;;;;;;;2.67;1.75;;;;;;;13.29;33.20;99164.28;5112258;28;20583;-82
2022/05/11 06:07:25;;;;;;;4.40;1.58;;;;;;;13.73;32.80;99192.28;5096636;28;20043;-78
2022/05/11 06:09:53;;;;;;;3.45;1.67;;;;;;;13.67;32.85;99178.41;5115107;28;20058;-80
2022/05/11 06:12:20;;;;;;;1.98;1.70;;;;;;;13.69;32.35;99195.00;5111503;28;20075;-79
2022/05/11 06:14:48;;;;;;;2.40;2.00;;;;;;;13.65;32.33;99185.44;5115178;28;20404;-80
2022/05/11 06:17:20;;;;;;;2.70;1.60;;;;;;;13.32;32.68;99149.34;5115315;28;20051;-81
2022/05/11 06:19:49;;;;;;;5.47;1.80;;;;;;;13.51;32.40;99190.97;5117844;28;20512;-82
2022/05/11 06:22:17;;;;;;;4.90;1.67;;;;;;;13.68;32.44;99183.63;5098011;28;20484;-80
2022/05/11 06:24:46;;;;;;;2.63;1.70;;;;;;;13.80;32.12;99174.63;5115574;28;20100;-79
2022/05/11 06:27:18;;;;;;;10.40;2.43;;;;;;;13.93;32.40;99193.63;5114683;28;20063;-80
2022/05/11 06:29:54;;;;;;;4.50;1.92;;;;;;;14.15;32.22;99175.63;5114369;28;20657;-81
2022/05/11 06:32:24;;;;;;;5.30;2.22;;;;;;;14.19;31.59;99172.03;5114624;28;20087;-80
2022/05/11 06:34:54;;;;;;;3.08;1.75;;;;;;;14.28;31.06;99157.84;5114869;28;20100;-79
2022/05/11 06:37:24;;;;;;;5.53;2.13;;;;;;;14.37;31.26;99176.03;5114258;28;20048;-79
2022/05/11 06:39:51;;;;;;;4.20;2.45;;;;;;;14.47;31.13;99177.53;5115013;28;20055;-77
2022/05/11 06:42:20;;;;;;;3.45;1.90;;;;;;;14.48;31.03;99145.13;5113572;28;20112;-79
2022/05/11 06:44:50;;;;;;;12.15;2.17;;;;;;;14.58;30.74;99144.91;5096503;28;20136;-79
2022/05/11 06:47:18;;;;;;;;;;;;;;;14.62;31.24;99160.56;5114485;28;20520;-80
2022/05/11 06:49:46;;;;;;;2.38;1.50;;;;;;;14.90;30.67;99159.88;5095860;28;20316;-82
2022/05/11 06:52:17;;;;;;;2.53;1.80;;;;;;;14.87;30.56;99154.72;5114476;28;20055;-80
2022/05/11 07:00:23;;;;;;;4.57;2.13;;;;;;;15.33;30.47;99148.22;5114127;28;20138;-80
2022/05/11 07:02:50;;;;;;;3.25;1.98;;;;;;;15.41;29.74;99112.06;5114042;28;20062;-79
2022/05/11 07:05:17;;;;;;;3.00;1.60;;;;;;;15.48;29.72;99107.47;5113969;28;20134;-79
2022/05/11 07:07:44;;;;;;;5.70;2.10;;;;;;;15.60;29.60;99143.97;5113968;28;20390;-80
2022/05/11 07:10:12;;;;;;;6.00;1.60;;;;;;;15.60;29.81;99135.22;5114045;28;20058;-79
2022/05/11 07:12:45;;;;;;;2.60;1.90;;;;;;;15.67;29.35;99165.72;5113843;28;20051;-79
2022/05/11 07:15:23;;;;;;;3.78;2.00;;;;;;;15.63;29.30;99162.31;5114024;28;20055;-80
2022/05/11 07:17:56;;;;;;;4.40;2.80;;;;;;;15.38;29.71;99111.25;5113336;28;20056;-79
2022/05/11 07:20:29;;;;;;;4.78;2.00;;;;;;;15.58;29.16;99132.63;5114293;28;20043;-78
2022/05/11 07:22:56;;;;;;;4.93;1.77;;;;;;;15.59;29.27;99141.38;5114075;28;20055;-79
2022/05/11 07:25:24;;;;;;;6.10;2.63;;;;;;;15.67;29.57;99150.78;5113832;28;20092;-84
2022/05/11 07:27:52;;;;;;;3.63;2.10;;;;;;;15.85;29.47;99141.53;5096272;28;20491;-83
2022/05/11 07:30:23;;;;;;;3.58;2.40;;;;;;;15.96;29.08;99139.44;5113782;28;20052;-80
2022/05/11 07:32:58;;;;;;;5.15;2.22;;;;;;;15.99;28.94;99133.22;5129184;27;20151;-81
2022/05/11 07:35:28;;;;;;;7.07;1.92;;;;;;;16.15;28.31;99129.22;5113595;28;20094;-81
2022/05/11 07:37:59;;;;;;;2.83;1.90;;;;;;;16.18;28.26;99128.25;5113574;28;20061;-80
2022/05/11 07:40:28;;;;;;;2.20;1.60;;;;;;;16.44;28.24;99130.06;5113405;28;20063;-81
2022/05/11 07:42:55;;;;;;;2.55;1.90;;;;;;;16.44;28.09;99084.38;5113470;28;20176;-80
2022/05/11 07:45:24;;;;;;;4.65;2.10;;;;;;;16.62;27.58;99090.81;5113757;28;20047;-80
2022/05/11 07:47:53;;;;;;;6.25;2.03;;;;;;;16.54;27.45;99070.84;5113838;28;20043;-81
2022/05/11 07:50:20;;;;;;;3.63;2.03;;;;;;;16.80;27.30;99095.50;5114755;28;20055;-81
2022/05/11 07:52:48;;;;;;;5.55;2.00;;;;;;;17.10;27.16;99117.31;5113734;28;20055;-83
2022/05/11 07:55:18;;;;;;;2.45;1.80;;;;;;;16.97;27.06;99103.69;5112984;28;20142;-81
2022/05/11 08:00:34;;;;;;;4.85;2.28;;;;;;;16.98;26.85;99073.75;5113474;28;20049;-80
2022/05/11 08:03:01;;;;;;;4.65;2.20;;;;;;;17.43;26.54;99110.91;5113328;28;20055;-80
2022/05/11 08:05:30;;;;;;;5.55;2.30;;;;;;;17.34;26.68;99114.72;5113000;28;20049;-79
2022/05/11 08:08:05;;;;;;;3.20;1.90;;;;;;;17.34;26.64;99107.66;5113184;28;20058;-79
2022/05/11 08:10:41;;;;;;;3.53;2.20;;;;;;;17.50;26.87;99073.63;5113140;28;20425;-78
2022/05/11 08:13:12;;;;;;;3.30;2.10;;;;;;;18.04;26.52;99110.38;5113060;28;20091;-78
2022/05/11 08:15:49;;;;;;;3.17;1.85;;;;;;;17.85;26.13;99115.50;5113007;28;20051;-79
2022/05/11 08:18:19;;;;;;;6.43;2.55;;;;;;;17.58;26.60;99111.19;5113262;28;20043;-78
2022/05/11 08:20:47;;;;;;;4.35;2.10;;;;;;;17.42;26.77;99101.25;5112848;28;20056;-79
2022/05/11 08:23:14;;;;;;;4.53;2.15;;;;;;;17.44;26.83;99059.81;5112732;28;20055;-82
2022/05/11 08:25:44;;;;;;;4.38;2.30;;;;;;;17.72;26.31;99099.22;5112953;28;20124;-82
2022/05/11 08:28:19;;;;;;;5.43;2.38;;;;;;;17.53;26.76;99075.28;5114224;28;20051;-82
2022/05/11 08:33:38;;;;;;;2.90;2.40;;;;;;;17.96;26.75;99086.88;5096498;28;20104;-80
2022/05/11 08:36:28;;;;;;;6.05;2.20;;;;;;;18.07;26.34;99083.81;5079407;28;20052;-82
2022/05/11 08:38:58;;;;;;;2.63;2.17;;;;;;;18.13;26.30;99096.78;5092730;28;20074;-79
2022/05/11 08:41:49;;;;;;;3.22;2.25;;;;;;;17.81;26.31;99072.50;5074107;28;20149;-80
2022/05/11 08:44:26;;;;;;;6.38;2.47;;;;;;;17.79;26.50;99061.97;5093125;28;20180;-79
2022/05/11 08:47:16;;;;;;;2.15;1.95;;;;;;;18.18;26.45;99060.50;5094757;28;20051;-80
2022/05/11 08:50:09;;;;;;;3.50;2.08;;;;;;;18.20;26.10;99079.78;5107842;28;20059;-79
2022/05/11 08:52:50;;;;;;;3.47;2.30;;;;;;;18.12;26.33;99077.44;5092363;28;20058;-81
2022/05/11 08:55:43;;;;;;;3.90;2.13;;;;;;;18.16;26.31;99084.31;5092782;28;20142;-80
2022/05/11 08:58:18;;;;;;;5.78;2.30;;;;;;;18.28;26.04;99082.09;5075410;28;20052;-80
2022/05/11 09:00:46;;;;;;;5.07;2.42;;;;;;;18.30;25.90;99075.81;5092608;28;20059;-82
2022/05/11 09:03:33;;;;;;;3.20;2.20;;;;;;;18.27;25.85;99069.81;5092201;28;20086;-80
2022/05/11 09:06:11;;;;;;;5.95;3.63;;;;;;;18.58;25.21;99091.44;5093216;28;20520;-79
2022/05/11 09:08:40;;;;;;;5.15;2.42;;;;;;;18.47;25.47;99087.50;5091583;28;20058;-80
2022/05/11 09:11:11;;;;;;;4.30;2.20;;;;;;;18.44;25.26;99088.50;5116602;28;20056;-80
2022/05/11 09:13:39;;;;;;;4.00;2.22;;;;;;;18.20;25.36;99099.16;5115843;28;20083;-78
2022/05/11 09:16:39;;;;;;;4.13;1.85;;;;;;;18.10;25.66;99079.28;5116140;28;20116;-78
2022/05/11 09:19:22;;;;;;;4.70;2.22;;;;;;;18.13;25.48;99080.94;5097604;28;20489;-79
2022/05/11 09:21:58;;;;;;;3.45;1.88;;;;;;;18.07;24.97;99037.13;5115924;28;20143;-79
2022/05/11 09:24:35;;;;;;;3.92;2.05;;;;;;;18.44;25.19;99071.78;5115984;28;20082;-80
2022/05/11 09:27:05;;;;;;;4.45;2.30;;;;;;;18.55;24.94;99075.69;5116053;28;20142;-79
2022/05/11 09:29:39;;;;;;;4.68;2.03;;;;;;;18.69;24.65;99071.59;5097644;28;20056;-79
2022/05/11 09:32:29;;;;;;;2.20;1.83;;;;;;;18.80;24.20;99080.84;5115863;28;20059;-81
2022/05/11 09:35:27;;;;;;;5.15;2.40;;;;;;;18.41;24.67;99070.09;5113432;28;20556;-79
2022/05/11 09:38:05;;;;;;;3.58;2.35;;;;;;;18.37;24.29;99073.81;5087730;28;20143;-81
2022/05/11 09:40:55;;;;;;;2.42;2.00;;;;;;;18.25;24.30;99064.59;5095659;28;20056;-80
2022/05/11 09:43:33;;;;;;;2.92;1.80;;;;;;;18.06;23.94;99055.69;5114770;28;20564;-81
2022/05/11 09:46:38;;;;;;;8.38;2.25;;;;;;;18.28;24.17;99067.09;5115487;28;20493;-81
2022/05/11 09:49:26;;;;;;;4.22;1.90;;;;;;;18.09;23.91;99022.09;5013130;28;20068;-81
2022/05/11 09:51:57;;;;;;;3.95;2.00;;;;;;;18.25;23.91;99058.44;5095819;28;20048;-83
2022/05/11 09:54:46;;;;;;;3.92;2.20;;;;;;;18.52;23.73;99078.47;5116716;28;20054;-80
2022/05/11 10:11:28;;;;;;;5.07;2.20;;;;;;;19.07;22.21;99071.78;5109283;27;1876039;-80
2022/05/11 10:22:50;;;;;;;6.97;2.10;;;;;;;18.87;22.65;99060.28;5149005;27;20384;-79
2022/05/11 10:25:22;;;;;;;2.92;2.20;;;;;;;18.98;22.94;99057.16;5151143;27;20046;-79
2022/05/11 10:28:16;;;;;;;4.93;1.90;;;;;;;19.08;22.63;99066.41;5151138;27;20054;-78
2022/05/11 10:31:15;;;;;;;4.47;2.35;;;;;;;18.81;23.20;99058.75;5151078;27;20096;-79
2022/05/11 10:33:53;;;;;;;4.85;2.40;;;;;;;18.80;23.32;99062.31;5150553;27;20047;-79
2022/05/11 10:36:42;;;;;;;6.07;2.00;;;;;;;18.55;23.31;99051.88;5150591;27;20050;-82
2022/05/11 10:39:38;;;;;;;3.50;2.30;;;;;;;18.66;23.84;99061.16;5149581;27;20082;-81
2022/05/11 10:42:17;;;;;;;6.35;1.95;;;;;;;18.81;23.47;99053.44;5131360;28;20397;-79
2022/05/11 10:44:58;;;;;;;3.55;1.98;;;;;;;18.91;23.12;99061.88;5131007;28;20079;-80
2022/05/11 10:47:52;;;;;;;10.95;2.40;;;;;;;18.74;23.08;99056.41;5145778;27;20038;-79
2022/05/11 10:50:29;;;;;;;3.15;2.20;;;;;;;18.74;22.60;99070.50;5113259;27;20517;-80
2022/05/11 10:53:18;;;;;;;2.50;1.73;;;;;;;18.52;22.55;99054.66;5148717;27;20419;-81
2022/05/11 10:56:11;;;;;;;5.53;2.17;;;;;;;18.53;22.86;99031.72;5146292;27;20054;-81
2022/05/11 10:58:56;;;;;;;4.80;2.20;;;;;;;18.54;23.08;99049.28;5130177;27;20051;-81
2022/05/11 11:01:46;;;;;;;4.03;2.88;;;;;;;18.53;23.24;99061.66;5149732;27;20046;-81
2022/05/11 11:04:27;;;;;;;6.40;1.88;;;;;;;18.40;23.29;99031.38;5145213;27;20078;-79
2022/05/11 11:07:26;;;;;;;4.43;2.08;;;;;;;18.37;23.27;99055.31;5147857;27;20522;-81
2022/05/11 11:10:21;;;;;;;5.68;2.15;;;;;;;18.40;23.46;99048.09;5146355;27;20059;-81
2022/05/11 11:13:09;;;;;;;3.63;2.20;;;;;;;18.37;23.47;99065.91;5136216;27;20055;-79
2022/05/11 11:15:42;;;;;;;5.22;2.03;;;;;;;18.19;23.37;99019.91;5135064;27;20079;-81
2022/05/11 11:18:15;;;;;;;2.80;1.98;;;;;;;18.75;23.23;99063.41;5135901;27;20134;-80
2022/05/11 11:20:48;;;;;;;4.45;2.03;;;;;;;19.14;22.75;99070.56;5136256;27;20108;-81
2022/05/11 11:23:17;;;;;;;6.50;2.20;;;;;;;18.86;22.71;99039.16;5131876;27;20071;-79
2022/05/11 11:25:57;;;;;;;2.92;1.80;;;;;;;18.13;22.74;98952.31;5133843;27;20055;-79
2022/05/11 11:28:28;;;;;;;5.18;2.08;;;;;;;18.52;23.23;99043.22;5117785;27;20559;-80
2022/05/11 11:30:59;;;;;;;2.90;2.08;;;;;;;18.26;23.23;98989.66;5115400;27;20126;-79
2022/05/11 11:33:34;;;;;;;5.47;2.38;;;;;;;18.57;23.03;99023.59;5118956;27;20074;-80
2022/05/11 11:36:05;;;;;;;4.90;2.30;;;;;;;18.54;23.04;99036.06;5137593;27;20050;-81
2022/05/11 11:38:37;;;;;;;5.28;2.20;;;;;;;18.55;22.98;99062.47;5125220;27;20055;-79
2022/05/11 11:41:09;;;;;;;4.18;2.30;;;;;;;18.44;23.03;99048.84;5136533;27;20047;-81
2022/05/11 11:44:05;;;;;;;3.65;2.25;;;;;;;18.50;23.44;99056.53;5136768;27;20419;-80
2022/05/11 11:46:45;;;;;;;3.97;2.25;;;;;;;18.58;23.35;99072.94;5136827;27;20522;-79
2022/05/11 11:49:22;;;;;;;6.05;2.55;;;;;;;18.45;23.16;99068.19;5137540;27;20043;-82
2022/05/11 11:52:00;;;;;;;2.80;2.05;;;;;;;18.19;23.46;99063.03;5118724;27;20047;-79
2022/05/11 11:54:36;;;;;;;7.00;2.42;;;;;;;18.14;23.86;99065.03;5137701;27;20051;-81
2022/05/11 11:57:12;;;;;;;6.30;2.88;;;;;;;18.25;23.87;99083.09;5124400;27;20043;-79
2022/05/11 11:59:53;;;;;;;6.38;2.35;;;;;;;18.08;23.86;99062.63;5145761;27;20108;-78
2022/05/11 12:23:48;;;;;;;4.65;2.30;;;;;;;19.76;21.89;99029.78;5127166;27;20471;-79
2022/05/11 12:26:28;;;;;;;8.75;2.30;;;;;;;19.49;21.90;99028.38;5120836;28;20531;-79
2022/05/11 12:32:06;;;;;;;5.88;2.38;;;;;;;19.40;21.94;99038.50;5123966;28;20047;-80
2022/05/11 12:34:44;;;;;;;4.18;2.10;;;;;;;19.15;21.96;99051.97;5097111;28;20508;-81
2022/05/11 12:37:31;;;;;;;3.63;2.67;;;;;;;19.01;22.29;99047.31;5099594;28;20069;-84
2022/05/11 12:40:08;;;;;;;2.78;2.40;;;;;;;18.99;22.56;99041.22;5100686;28;20068;-80
2022/05/11 12:42:45;;;;;;;4.15;2.50;;;;;;;19.22;22.67;99034.03;5101457;28;20076;-81
2022/05/11 12:45:35;;;;;;;6.82;2.65;;;;;;;19.41;22.57;99016.38;5100382;28;20055;-80
2022/05/11 12:48:03;;;;;;;6.60;2.60;;;;;;;19.50;22.29;98977.16;5101274;28;20048;-79
2022/05/11 12:51:07;;;;;;;5.50;2.35;;;;;;;19.68;22.40;99031.91;5099045;28;20052;-81
2022/05/11 12:53:37;;;;;;;4.43;2.83;;;;;;;19.43;22.52;98969.50;5087450;28;20044;-81
2022/05/11 12:56:31;;;;;;;7.03;2.47;;;;;;;19.51;22.46;99003.56;5111835;27;20505;-80
2022/05/11 12:59:04;;;;;;;6.80;2.88;;;;;;;19.64;22.44;99009.16;5095997;28;20044;-79
2022/05/11 14:36:37;;;;;;;4.30;2.20;;;;;;;19.46;21.54;98954.38;5093582;28;20359;-78
2022/05/11 14:39:09;;;;;;;6.75;2.50;;;;;;;19.12;22.05;98913.59;5024168;28;20118;-79
2022/05/11 14:41:36;;;;;;;5.60;2.63;;;;;;;19.12;21.96;98935.66;5040103;28;20044;-80
2022/05/11 14:44:05;;;;;;;6.85;2.72;;;;;;;19.13;21.98;98947.94;5074075;28;20049;-78